sensor_id;sensor_type;location;lat;lon;timestamp;P1;durP1;ratioP1;P2;durP2;ratioP2
25045;SDS011;13044;49.304;12.840;2022-07-31T00:01:14;5.53;;;4.47;;
25045;SDS011;13044;49.304;12.840;2022-07-31T00:03:41;5.82;;;4.85;;
25045;SDS011;13044;49.304;12.840;2022-07-31T00:06:08;7.93;;;4.68;;
25045;SDS011;13044;49.304;12.840;2022-07-31T00:08:35;6.53;;;4.68;;
25045;SDS011;13044;49.304;12.840;2022-07-31T00:11:02;6.03;;;5.13;;
25045;SDS011;13044;49.304;12.840;2022-07-31T00:13:28;7.32;;;4.20;;
25045;SDS011;13044;49.304;12.840;2022-07-31T00:16:15;9.43;;;4.85;;
25045;SDS011;13044;49.304;12.840;2022-07-31T00:18:42;5.07;;;4.50;;
25045;SDS011;13044;49.304;12.840;2022-07-31T00:21:09;4.93;;;4.50;;
25045;SDS011;13044;49.304;12.840;2022-07-31T00:23:36;5.57;;;4.68;;
25045;SDS011;13044;49.304;12.840;2022-07-31T00:26:03;5.20;;;4.50;;
25045;SDS011;13044;49.304;12.840;2022-07-31T00:28:30;6.40;;;5.22;;
25045;SDS011;13044;49.304;12.840;2022-07-31T00:30:56;6.50;;;4.72;;
25045;SDS011;13044;49.304;12.840;2022-07-31T00:33:23;5.80;;;5.20;;
25045;SDS011;13044;49.304;12.840;2022-07-31T00:35:50;5.32;;;4.80;;
25045;SDS011;13044;49.304;12.840;2022-07-31T00:38:17;7.00;;;4.85;;
25045;SDS011;13044;49.304;12.840;2022-07-31T00:40:52;5.38;;;4.88;;
25045;SDS011;13044;49.304;12.840;2022-07-31T00:43:19;7.82;;;4.78;;
25045;SDS011;13044;49.304;12.840;2022-07-31T00:45:47;5.20;;;4.70;;
25045;SDS011;13044;49.304;12.840;2022-07-31T00:48:24;4.90;;;4.50;;
25045;SDS011;13044;49.304;12.840;2022-07-31T00:50:52;6.20;;;4.97;;
25045;SDS011;13044;49.304;12.840;2022-07-31T00:53:20;5.22;;;4.28;;
25045;SDS011;13044;49.304;12.840;2022-07-31T00:55:47;5.30;;;4.80;;
25045;SDS011;13044;49.304;12.840;2022-07-31T00:58:17;8.30;;;4.97;;
25045;SDS011;13044;49.304;12.840;2022-07-31T01:00:45;10.63;;;5.10;;
25045;SDS011;13044;49.304;12.840;2022-07-31T01:03:13;5.63;;;5.00;;
25045;SDS011;13044;49.304;12.840;2022-07-31T01:05:40;7.88;;;5.00;;
25045;SDS011;13044;49.304;12.840;2022-07-31T01:08:07;9.27;;;5.38;;
25045;SDS011;13044;49.304;12.840;2022-07-31T01:10:40;6.15;;;5.20;;
25045;SDS011;13044;49.304;12.840;2022-07-31T01:13:36;6.90;;;4.75;;
25045;SDS011;13044;49.304;12.840;2022-07-31T01:16:12;7.65;;;5.20;;
25045;SDS011;13044;49.304;12.840;2022-07-31T01:18:40;8.13;;;5.20;;
25045;SDS011;13044;49.304;12.840;2022-07-31T01:21:10;7.97;;;4.60;;
25045;SDS011;13044;49.304;12.840;2022-07-31T01:26:53;10.73;;;6.28;;
25045;SDS011;13044;49.304;12.840;2022-07-31T01:30:03;12.75;;;7.38;;
25045;SDS011;13044;49.304;12.840;2022-07-31T01:32:36;20.52;;;8.85;;
25045;SDS011;13044;49.304;12.840;2022-07-31T01:35:09;19.40;;;8.82;;
25045;SDS011;13044;49.304;12.840;2022-07-31T01:37:46;16.88;;;8.68;;
25045;SDS011;13044;49.304;12.840;2022-07-31T01:40:20;20.60;;;9.70;;
25045;SDS011;13044;49.304;12.840;2022-07-31T01:43:01;16.30;;;9.00;;
25045;SDS011;13044;49.304;12.840;2022-07-31T01:45:34;19.52;;;9.63;;
25045;SDS011;13044;49.304;12.840;2022-07-31T01:48:04;23.98;;;9.52;;
25045;SDS011;13044;49.304;12.840;2022-07-31T01:50:33;30.88;;;9.82;;
25045;SDS011;13044;49.304;12.840;2022-07-31T01:53:09;30.58;;;9.18;;
25045;SDS011;13044;49.304;12.840;2022-07-31T01:55:41;22.97;;;9.97;;
25045;SDS011;13044;49.304;12.840;2022-07-31T01:58:31;24.33;;;10.00;;
25045;SDS011;13044;49.304;12.840;2022-07-31T02:03:31;19.27;;;9.48;;
25045;SDS011;13044;49.304;12.840;2022-07-31T02:06:09;16.40;;;8.82;;
25045;SDS011;13044;49.304;12.840;2022-07-31T02:08:41;19.00;;;8.55;;
25045;SDS011;13044;49.304;12.840;2022-07-31T02:11:11;17.67;;;8.73;;
25045;SDS011;13044;49.304;12.840;2022-07-31T02:13:41;26.02;;;10.55;;
25045;SDS011;13044;49.304;12.840;2022-07-31T02:16:10;26.15;;;11.23;;
25045;SDS011;13044;49.304;12.840;2022-07-31T02:18:39;20.73;;;10.98;;
25045;SDS011;13044;49.304;12.840;2022-07-31T02:21:07;28.55;;;11.95;;
25045;SDS011;13044;49.304;12.840;2022-07-31T02:23:35;16.65;;;11.00;;
25045;SDS011;13044;49.304;12.840;2022-07-31T02:26:03;15.05;;;10.38;;
25045;SDS011;13044;49.304;12.840;2022-07-31T02:28:32;22.05;;;10.80;;
25045;SDS011;13044;49.304;12.840;2022-07-31T02:31:04;19.85;;;11.30;;
25045;SDS011;13044;49.304;12.840;2022-07-31T02:33:36;23.17;;;12.48;;
25045;SDS011;13044;49.304;12.840;2022-07-31T02:36:05;22.02;;;12.23;;
25045;SDS011;13044;49.304;12.840;2022-07-31T02:38:32;25.30;;;11.75;;
25045;SDS011;13044;49.304;12.840;2022-07-31T02:41:01;18.95;;;12.50;;
25045;SDS011;13044;49.304;12.840;2022-07-31T02:43:30;17.13;;;12.15;;
25045;SDS011;13044;49.304;12.840;2022-07-31T02:45:58;16.20;;;12.20;;
25045;SDS011;13044;49.304;12.840;2022-07-31T02:48:25;19.25;;;12.75;;
25045;SDS011;13044;49.304;12.840;2022-07-31T02:50:53;21.48;;;13.20;;
25045;SDS011;13044;49.304;12.840;2022-07-31T02:53:21;18.38;;;13.70;;
25045;SDS011;13044;49.304;12.840;2022-07-31T02:55:48;16.95;;;12.77;;
25045;SDS011;13044;49.304;12.840;2022-07-31T02:58:16;19.23;;;13.75;;
25045;SDS011;13044;49.304;12.840;2022-07-31T03:00:43;19.77;;;14.00;;
25045;SDS011;13044;49.304;12.840;2022-07-31T03:03:11;22.45;;;13.52;;
25045;SDS011;13044;49.304;12.840;2022-07-31T03:05:38;23.13;;;14.27;;
25045;SDS011;13044;49.304;12.840;2022-07-31T03:08:05;21.98;;;14.15;;
25045;SDS011;13044;49.304;12.840;2022-07-31T03:10:32;20.55;;;15.27;;
25045;SDS011;13044;49.304;12.840;2022-07-31T03:12:58;24.63;;;14.75;;
25045;SDS011;13044;49.304;12.840;2022-07-31T03:15:26;21.48;;;14.43;;
25045;SDS011;13044;49.304;12.840;2022-07-31T03:17:55;18.40;;;14.00;;
25045;SDS011;13044;49.304;12.840;2022-07-31T03:20:23;17.33;;;12.95;;
25045;SDS011;13044;49.304;12.840;2022-07-31T03:22:52;18.92;;;11.13;;
25045;SDS011;13044;49.304;12.840;2022-07-31T03:25:19;14.85;;;11.40;;
25045;SDS011;13044;49.304;12.840;2022-07-31T03:27:50;14.02;;;11.13;;
25045;SDS011;13044;49.304;12.840;2022-07-31T03:30:22;13.43;;;10.68;;
25045;SDS011;13044;49.304;12.840;2022-07-31T03:32:50;13.65;;;10.80;;
25045;SDS011;13044;49.304;12.840;2022-07-31T03:35:22;14.38;;;11.15;;
25045;SDS011;13044;49.304;12.840;2022-07-31T03:37:50;17.05;;;11.18;;
25045;SDS011;13044;49.304;12.840;2022-07-31T03:40:17;21.67;;;12.05;;
25045;SDS011;13044;49.304;12.840;2022-07-31T03:42:45;18.92;;;13.13;;
25045;SDS011;13044;49.304;12.840;2022-07-31T03:45:14;15.05;;;13.00;;
25045;SDS011;13044;49.304;12.840;2022-07-31T03:47:41;17.63;;;13.27;;
25045;SDS011;13044;49.304;12.840;2022-07-31T03:50:09;17.92;;;13.07;;
25045;SDS011;13044;49.304;12.840;2022-07-31T03:52:36;17.58;;;12.68;;
25045;SDS011;13044;49.304;12.840;2022-07-31T03:55:04;14.45;;;11.95;;
25045;SDS011;13044;49.304;12.840;2022-07-31T03:57:33;17.25;;;12.88;;
25045;SDS011;13044;49.304;12.840;2022-07-31T04:00:03;19.02;;;12.38;;
25045;SDS011;13044;49.304;12.840;2022-07-31T04:02:42;17.88;;;13.45;;
25045;SDS011;13044;49.304;12.840;2022-07-31T04:05:10;18.80;;;13.82;;
25045;SDS011;13044;49.304;12.840;2022-07-31T04:07:37;17.60;;;12.98;;
25045;SDS011;13044;49.304;12.840;2022-07-31T04:10:04;20.38;;;14.07;;
25045;SDS011;13044;49.304;12.840;2022-07-31T04:12:31;19.58;;;13.77;;
25045;SDS011;13044;49.304;12.840;2022-07-31T04:14:58;16.38;;;13.30;;
25045;SDS011;13044;49.304;12.840;2022-07-31T04:17:25;19.23;;;13.93;;
25045;SDS011;13044;49.304;12.840;2022-07-31T04:19:56;19.30;;;14.57;;
25045;SDS011;13044;49.304;12.840;2022-07-31T04:22:23;21.00;;;15.55;;
25045;SDS011;13044;49.304;12.840;2022-07-31T04:24:50;21.17;;;15.93;;
25045;SDS011;13044;49.304;12.840;2022-07-31T04:27:17;22.23;;;15.68;;
25045;SDS011;13044;49.304;12.840;2022-07-31T04:29:44;20.98;;;14.45;;
25045;SDS011;13044;49.304;12.840;2022-07-31T04:32:11;22.85;;;15.07;;
25045;SDS011;13044;49.304;12.840;2022-07-31T04:34:38;23.58;;;16.05;;
25045;SDS011;13044;49.304;12.840;2022-07-31T04:37:05;18.75;;;14.48;;
25045;SDS011;13044;49.304;12.840;2022-07-31T04:39:32;20.58;;;14.35;;
25045;SDS011;13044;49.304;12.840;2022-07-31T04:41:59;21.00;;;15.15;;
25045;SDS011;13044;49.304;12.840;2022-07-31T04:44:27;18.25;;;14.30;;
25045;SDS011;13044;49.304;12.840;2022-07-31T04:46:57;17.00;;;14.35;;
25045;SDS011;13044;49.304;12.840;2022-07-31T04:49:25;16.98;;;13.82;;
25045;SDS011;13044;49.304;12.840;2022-07-31T04:51:53;18.13;;;12.50;;
25045;SDS011;13044;49.304;12.840;2022-07-31T04:54:19;17.70;;;14.18;;
25045;SDS011;13044;49.304;12.840;2022-07-31T04:56:46;16.48;;;12.38;;
25045;SDS011;13044;49.304;12.840;2022-07-31T04:59:14;18.15;;;13.13;;
25045;SDS011;13044;49.304;12.840;2022-07-31T05:01:45;17.27;;;12.57;;
25045;SDS011;13044;49.304;12.840;2022-07-31T05:04:14;15.52;;;12.25;;
25045;SDS011;13044;49.304;12.840;2022-07-31T05:06:42;17.35;;;12.70;;
25045;SDS011;13044;49.304;12.840;2022-07-31T05:09:12;17.75;;;12.93;;
25045;SDS011;13044;49.304;12.840;2022-07-31T05:11:45;18.17;;;12.75;;
25045;SDS011;13044;49.304;12.840;2022-07-31T05:14:14;17.95;;;13.23;;
25045;SDS011;13044;49.304;12.840;2022-07-31T05:16:43;15.80;;;12.80;;
25045;SDS011;13044;49.304;12.840;2022-07-31T05:19:11;21.02;;;13.05;;
25045;SDS011;13044;49.304;12.840;2022-07-31T05:21:40;15.98;;;12.65;;
25045;SDS011;13044;49.304;12.840;2022-07-31T05:24:28;15.45;;;13.02;;
25045;SDS011;13044;49.304;12.840;2022-07-31T05:27:00;19.10;;;13.00;;
25045;SDS011;13044;49.304;12.840;2022-07-31T05:29:28;15.02;;;11.95;;
25045;SDS011;13044;49.304;12.840;2022-07-31T05:31:56;16.05;;;12.70;;
25045;SDS011;13044;49.304;12.840;2022-07-31T05:34:25;17.10;;;13.48;;
25045;SDS011;13044;49.304;12.840;2022-07-31T05:36:56;14.80;;;12.88;;
25045;SDS011;13044;49.304;12.840;2022-07-31T05:39:27;18.15;;;13.60;;
25045;SDS011;13044;49.304;12.840;2022-07-31T05:41:55;17.08;;;14.13;;
25045;SDS011;13044;49.304;12.840;2022-07-31T05:44:22;20.05;;;13.73;;
25045;SDS011;13044;49.304;12.840;2022-07-31T05:46:50;18.70;;;14.00;;
25045;SDS011;13044;49.304;12.840;2022-07-31T05:49:17;15.45;;;13.13;;
25045;SDS011;13044;49.304;12.840;2022-07-31T05:51:44;15.43;;;12.40;;
25045;SDS011;13044;49.304;12.840;2022-07-31T05:54:12;15.63;;;12.23;;
25045;SDS011;13044;49.304;12.840;2022-07-31T05:56:39;13.63;;;11.93;;
25045;SDS011;13044;49.304;12.840;2022-07-31T05:59:06;15.07;;;12.20;;
25045;SDS011;13044;49.304;12.840;2022-07-31T06:01:34;14.73;;;12.00;;
25045;SDS011;13044;49.304;12.840;2022-07-31T06:04:02;14.35;;;12.13;;
25045;SDS011;13044;49.304;12.840;2022-07-31T06:06:29;16.20;;;12.75;;
25045;SDS011;13044;49.304;12.840;2022-07-31T06:08:56;16.30;;;13.75;;
25045;SDS011;13044;49.304;12.840;2022-07-31T06:11:29;17.08;;;12.80;;
25045;SDS011;13044;49.304;12.840;2022-07-31T06:13:57;14.93;;;13.00;;
25045;SDS011;13044;49.304;12.840;2022-07-31T06:16:24;17.27;;;13.50;;
25045;SDS011;13044;49.304;12.840;2022-07-31T06:18:51;16.10;;;12.98;;
25045;SDS011;13044;49.304;12.840;2022-07-31T06:21:18;17.00;;;13.35;;
25045;SDS011;13044;49.304;12.840;2022-07-31T06:23:43;16.13;;;13.70;;
25045;SDS011;13044;49.304;12.840;2022-07-31T06:26:11;14.68;;;12.65;;
25045;SDS011;13044;49.304;12.840;2022-07-31T06:28:38;17.00;;;12.85;;
25045;SDS011;13044;49.304;12.840;2022-07-31T06:31:15;15.20;;;12.30;;
25045;SDS011;13044;49.304;12.840;2022-07-31T06:33:46;16.58;;;12.40;;
25045;SDS011;13044;49.304;12.840;2022-07-31T06:36:15;15.25;;;12.77;;
25045;SDS011;13044;49.304;12.840;2022-07-31T06:38:43;15.38;;;13.10;;
25045;SDS011;13044;49.304;12.840;2022-07-31T06:41:11;14.45;;;12.73;;
25045;SDS011;13044;49.304;12.840;2022-07-31T06:43:58;18.23;;;12.10;;
25045;SDS011;13044;49.304;12.840;2022-07-31T06:46:25;13.50;;;11.50;;
25045;SDS011;13044;49.304;12.840;2022-07-31T06:48:52;14.20;;;12.18;;
25045;SDS011;13044;49.304;12.840;2022-07-31T06:51:19;14.63;;;11.65;;
25045;SDS011;13044;49.304;12.840;2022-07-31T06:54:03;14.27;;;12.18;;
25045;SDS011;13044;49.304;12.840;2022-07-31T06:56:32;14.63;;;11.98;;
25045;SDS011;13044;49.304;12.840;2022-07-31T06:59:00;15.48;;;12.60;;
25045;SDS011;13044;49.304;12.840;2022-07-31T07:01:29;15.85;;;11.80;;
25045;SDS011;13044;49.304;12.840;2022-07-31T07:03:56;15.63;;;12.75;;
25045;SDS011;13044;49.304;12.840;2022-07-31T07:06:23;14.75;;;12.40;;
25045;SDS011;13044;49.304;12.840;2022-07-31T07:08:51;15.68;;;12.68;;
25045;SDS011;13044;49.304;12.840;2022-07-31T07:11:18;14.95;;;13.07;;
25045;SDS011;13044;49.304;12.840;2022-07-31T07:13:46;16.75;;;13.13;;
25045;SDS011;13044;49.304;12.840;2022-07-31T07:16:13;14.98;;;12.95;;
25045;SDS011;13044;49.304;12.840;2022-07-31T07:18:41;17.25;;;12.68;;
25045;SDS011;13044;49.304;12.840;2022-07-31T07:21:08;13.50;;;11.05;;
25045;SDS011;13044;49.304;12.840;2022-07-31T07:23:36;15.30;;;11.95;;
25045;SDS011;13044;49.304;12.840;2022-07-31T07:26:03;23.88;;;11.93;;
25045;SDS011;13044;49.304;12.840;2022-07-31T07:28:31;13.18;;;10.90;;
25045;SDS011;13044;49.304;12.840;2022-07-31T07:30:58;14.98;;;11.38;;
25045;SDS011;13044;49.304;12.840;2022-07-31T07:33:25;15.07;;;10.45;;
25045;SDS011;13044;49.304;12.840;2022-07-31T07:36:05;11.15;;;9.93;;
25045;SDS011;13044;49.304;12.840;2022-07-31T07:38:47;13.95;;;10.27;;
25045;SDS011;13044;49.304;12.840;2022-07-31T07:41:14;10.32;;;8.55;;
25045;SDS011;13044;49.304;12.840;2022-07-31T07:43:43;10.20;;;8.63;;
25045;SDS011;13044;49.304;12.840;2022-07-31T07:46:17;9.45;;;8.18;;
25045;SDS011;13044;49.304;12.840;2022-07-31T07:48:43;9.02;;;8.10;;
25045;SDS011;13044;49.304;12.840;2022-07-31T07:51:10;9.07;;;7.93;;
25045;SDS011;13044;49.304;12.840;2022-07-31T07:53:37;12.55;;;8.38;;
25045;SDS011;13044;49.304;12.840;2022-07-31T07:56:05;10.27;;;7.97;;
25045;SDS011;13044;49.304;12.840;2022-07-31T07:58:32;8.93;;;7.22;;
25045;SDS011;13044;49.304;12.840;2022-07-31T08:00:59;8.32;;;7.35;;
25045;SDS011;13044;49.304;12.840;2022-07-31T08:03:26;10.57;;;8.02;;
25045;SDS011;13044;49.304;12.840;2022-07-31T08:06:13;11.02;;;7.65;;
25045;SDS011;13044;49.304;12.840;2022-07-31T08:08:40;9.93;;;7.85;;
25045;SDS011;13044;49.304;12.840;2022-07-31T08:11:07;8.65;;;7.47;;
25045;SDS011;13044;49.304;12.840;2022-07-31T08:13:34;8.13;;;7.22;;
25045;SDS011;13044;49.304;12.840;2022-07-31T08:16:04;8.57;;;7.18;;
25045;SDS011;13044;49.304;12.840;2022-07-31T08:18:30;9.82;;;6.93;;
25045;SDS011;13044;49.304;12.840;2022-07-31T08:20:57;8.30;;;7.22;;
25045;SDS011;13044;49.304;12.840;2022-07-31T08:23:24;8.98;;;7.10;;
25045;SDS011;13044;49.304;12.840;2022-07-31T08:25:51;8.05;;;6.35;;
25045;SDS011;13044;49.304;12.840;2022-07-31T08:28:20;7.95;;;6.55;;
25045;SDS011;13044;49.304;12.840;2022-07-31T08:30:51;7.57;;;6.78;;
25045;SDS011;13044;49.304;12.840;2022-07-31T08:33:19;6.80;;;6.10;;
25045;SDS011;13044;49.304;12.840;2022-07-31T08:35:46;7.45;;;6.15;;
25045;SDS011;13044;49.304;12.840;2022-07-31T08:38:16;8.52;;;6.07;;
25045;SDS011;13044;49.304;12.840;2022-07-31T08:40:45;6.75;;;5.97;;
25045;SDS011;13044;49.304;12.840;2022-07-31T08:43:12;10.02;;;6.32;;
25045;SDS011;13044;49.304;12.840;2022-07-31T08:45:59;6.63;;;5.90;;
25045;SDS011;13044;49.304;12.840;2022-07-31T08:48:29;6.80;;;5.80;;
25045;SDS011;13044;49.304;12.840;2022-07-31T08:51:00;8.30;;;7.25;;
25045;SDS011;13044;49.304;12.840;2022-07-31T08:53:29;6.75;;;5.57;;
25045;SDS011;13044;49.304;12.840;2022-07-31T08:56:02;8.25;;;6.85;;
25045;SDS011;13044;49.304;12.840;2022-07-31T08:58:31;9.65;;;6.32;;
25045;SDS011;13044;49.304;12.840;2022-07-31T09:01:04;7.43;;;5.10;;
25045;SDS011;13044;49.304;12.840;2022-07-31T09:03:33;6.88;;;5.25;;
25045;SDS011;13044;49.304;12.840;2022-07-31T09:06:01;6.60;;;5.50;;
25045;SDS011;13044;49.304;12.840;2022-07-31T09:08:32;7.68;;;5.40;;
25045;SDS011;13044;49.304;12.840;2022-07-31T09:11:02;6.43;;;4.95;;
25045;SDS011;13044;49.304;12.840;2022-07-31T09:13:39;5.65;;;5.05;;
25045;SDS011;13044;49.304;12.840;2022-07-31T09:16:28;8.02;;;5.97;;
25045;SDS011;13044;49.304;12.840;2022-07-31T09:19:00;7.43;;;4.82;;
25045;SDS011;13044;49.304;12.840;2022-07-31T09:21:50;7.28;;;4.63;;
25045;SDS011;13044;49.304;12.840;2022-07-31T09:24:26;5.57;;;4.97;;
25045;SDS011;13044;49.304;12.840;2022-07-31T09:27:07;10.82;;;5.57;;
25045;SDS011;13044;49.304;12.840;2022-07-31T09:29:35;6.50;;;5.80;;
25045;SDS011;13044;49.304;12.840;2022-07-31T09:34:46;8.52;;;5.75;;
25045;SDS011;13044;49.304;12.840;2022-07-31T09:37:14;8.95;;;6.07;;
25045;SDS011;13044;49.304;12.840;2022-07-31T09:39:53;7.30;;;5.93;;
25045;SDS011;13044;49.304;12.840;2022-07-31T09:42:22;6.82;;;5.90;;
25045;SDS011;13044;49.304;12.840;2022-07-31T09:45:03;5.72;;;5.15;;
25045;SDS011;13044;49.304;12.840;2022-07-31T09:47:45;9.40;;;4.97;;
25045;SDS011;13044;49.304;12.840;2022-07-31T09:50:12;9.93;;;5.88;;
25045;SDS011;13044;49.304;12.840;2022-07-31T09:55:16;6.20;;;5.60;;
25045;SDS011;13044;49.304;12.840;2022-07-31T09:57:51;6.65;;;4.93;;
25045;SDS011;13044;49.304;12.840;2022-07-31T10:00:20;8.25;;;4.43;;
25045;SDS011;13044;49.304;12.840;2022-07-31T10:02:47;4.70;;;4.30;;
25045;SDS011;13044;49.304;12.840;2022-07-31T10:05:15;5.35;;;4.20;;
25045;SDS011;13044;49.304;12.840;2022-07-31T10:07:43;5.25;;;4.05;;
25045;SDS011;13044;49.304;12.840;2022-07-31T10:10:12;7.38;;;4.30;;
25045;SDS011;13044;49.304;12.840;2022-07-31T10:12:44;7.47;;;4.15;;
25045;SDS011;13044;49.304;12.840;2022-07-31T10:15:16;7.65;;;4.10;;
25045;SDS011;13044;49.304;12.840;2022-07-31T10:17:45;6.45;;;4.50;;
25045;SDS011;13044;49.304;12.840;2022-07-31T10:20:19;7.10;;;4.38;;
25045;SDS011;13044;49.304;12.840;2022-07-31T10:22:54;4.97;;;3.80;;
25045;SDS011;13044;49.304;12.840;2022-07-31T10:25:26;8.95;;;4.57;;
25045;SDS011;13044;49.304;12.840;2022-07-31T10:27:54;6.97;;;4.20;;
25045;SDS011;13044;49.304;12.840;2022-07-31T10:30:23;10.32;;;5.13;;
25045;SDS011;13044;49.304;12.840;2022-07-31T10:32:53;7.05;;;4.55;;
25045;SDS011;13044;49.304;12.840;2022-07-31T10:35:21;7.00;;;4.03;;
25045;SDS011;13044;49.304;12.840;2022-07-31T10:38:10;6.30;;;4.28;;
25045;SDS011;13044;49.304;12.840;2022-07-31T10:40:48;9.27;;;4.07;;
25045;SDS011;13044;49.304;12.840;2022-07-31T10:46:28;6.47;;;3.97;;
25045;SDS011;13044;49.304;12.840;2022-07-31T10:48:58;8.95;;;4.20;;
25045;SDS011;13044;49.304;12.840;2022-07-31T10:51:33;5.47;;;3.95;;
25045;SDS011;13044;49.304;12.840;2022-07-31T10:54:11;5.75;;;4.28;;
25045;SDS011;13044;49.304;12.840;2022-07-31T10:56:43;7.40;;;4.35;;
25045;SDS011;13044;49.304;12.840;2022-07-31T10:59:12;5.63;;;3.60;;
25045;SDS011;13044;49.304;12.840;2022-07-31T11:01:46;9.27;;;4.47;;
25045;SDS011;13044;49.304;12.840;2022-07-31T11:04:29;6.03;;;3.42;;
25045;SDS011;13044;49.304;12.840;2022-07-31T11:06:57;6.13;;;3.70;;
25045;SDS011;13044;49.304;12.840;2022-07-31T11:09:26;6.95;;;3.80;;
25045;SDS011;13044;49.304;12.840;2022-07-31T11:11:54;6.40;;;3.38;;
25045;SDS011;13044;49.304;12.840;2022-07-31T11:14:34;4.07;;;3.10;;
25045;SDS011;13044;49.304;12.840;2022-07-31T11:17:05;7.00;;;3.50;;
25045;SDS011;13044;49.304;12.840;2022-07-31T11:19:36;4.07;;;3.30;;
25045;SDS011;13044;49.304;12.840;2022-07-31T11:22:10;3.90;;;3.22;;
25045;SDS011;13044;49.304;12.840;2022-07-31T11:24:57;5.85;;;3.30;;
25045;SDS011;13044;49.304;12.840;2022-07-31T11:27:29;5.00;;;3.28;;
25045;SDS011;13044;49.304;12.840;2022-07-31T11:30:04;10.60;;;3.20;;
25045;SDS011;13044;49.304;12.840;2022-07-31T11:32:39;4.40;;;3.28;;
25045;SDS011;13044;49.304;12.840;2022-07-31T11:35:22;6.03;;;3.03;;
25045;SDS011;13044;49.304;12.840;2022-07-31T11:37:51;5.07;;;3.10;;
25045;SDS011;13044;49.304;12.840;2022-07-31T11:40:22;6.95;;;2.75;;
25045;SDS011;13044;49.304;12.840;2022-07-31T11:42:52;4.65;;;2.70;;
25045;SDS011;13044;49.304;12.840;2022-07-31T11:45:47;3.83;;;2.95;;
25045;SDS011;13044;49.304;12.840;2022-07-31T11:48:16;3.63;;;2.92;;
25045;SDS011;13044;49.304;12.840;2022-07-31T11:50:46;3.20;;;2.60;;
25045;SDS011;13044;49.304;12.840;2022-07-31T11:53:15;5.47;;;2.95;;
25045;SDS011;13044;49.304;12.840;2022-07-31T11:55:53;6.05;;;2.85;;
25045;SDS011;13044;49.304;12.840;2022-07-31T11:58:26;7.13;;;2.97;;
25045;SDS011;13044;49.304;12.840;2022-07-31T12:00:58;4.50;;;2.95;;
25045;SDS011;13044;49.304;12.840;2022-07-31T12:05:59;8.52;;;3.50;;
25045;SDS011;13044;49.304;12.840;2022-07-31T12:08:27;3.60;;;2.60;;
25045;SDS011;13044;49.304;12.840;2022-07-31T12:10:55;4.13;;;2.85;;
25045;SDS011;13044;49.304;12.840;2022-07-31T12:13:25;3.47;;;2.85;;
25045;SDS011;13044;49.304;12.840;2022-07-31T12:18:30;5.18;;;3.17;;
25045;SDS011;13044;49.304;12.840;2022-07-31T12:21:10;5.15;;;2.85;;
25045;SDS011;13044;49.304;12.840;2022-07-31T12:23:47;7.35;;;3.30;;
25045;SDS011;13044;49.304;12.840;2022-07-31T12:26:35;3.55;;;2.92;;
25045;SDS011;13044;49.304;12.840;2022-07-31T12:31:45;7.00;;;3.28;;
25045;SDS011;13044;49.304;12.840;2022-07-31T12:34:34;4.72;;;2.67;;
25045;SDS011;13044;49.304;12.840;2022-07-31T12:37:05;4.75;;;2.95;;
25045;SDS011;13044;49.304;12.840;2022-07-31T12:42:27;4.20;;;3.08;;
25045;SDS011;13044;49.304;12.840;2022-07-31T12:45:02;4.82;;;3.38;;
25045;SDS011;13044;49.304;12.840;2022-07-31T12:47:45;3.10;;;2.78;;
25045;SDS011;13044;49.304;12.840;2022-07-31T12:50:18;3.40;;;2.60;;
25045;SDS011;13044;49.304;12.840;2022-07-31T12:52:49;4.53;;;3.03;;
25045;SDS011;13044;49.304;12.840;2022-07-31T12:55:16;3.22;;;2.33;;
25045;SDS011;13044;49.304;12.840;2022-07-31T12:57:43;2.72;;;2.53;;
25045;SDS011;13044;49.304;12.840;2022-07-31T13:00:18;3.55;;;2.50;;
25045;SDS011;13044;49.304;12.840;2022-07-31T13:02:48;3.22;;;2.47;;
25045;SDS011;13044;49.304;12.840;2022-07-31T13:05:17;3.10;;;2.80;;
25045;SDS011;13044;49.304;12.840;2022-07-31T13:07:44;2.70;;;2.50;;
25045;SDS011;13044;49.304;12.840;2022-07-31T13:10:12;3.65;;;2.78;;
25045;SDS011;13044;49.304;12.840;2022-07-31T13:12:47;3.17;;;2.40;;
25045;SDS011;13044;49.304;12.840;2022-07-31T13:15:18;3.28;;;2.42;;
25045;SDS011;13044;49.304;12.840;2022-07-31T13:17:55;3.75;;;2.78;;
25045;SDS011;13044;49.304;12.840;2022-07-31T13:20:23;6.93;;;2.50;;
25045;SDS011;13044;49.304;12.840;2022-07-31T13:22:50;5.45;;;2.58;;
25045;SDS011;13044;49.304;12.840;2022-07-31T13:25:17;5.68;;;2.53;;
25045;SDS011;13044;49.304;12.840;2022-07-31T13:27:46;3.08;;;2.58;;
25045;SDS011;13044;49.304;12.840;2022-07-31T13:30:12;6.00;;;2.55;;
25045;SDS011;13044;49.304;12.840;2022-07-31T13:32:39;3.63;;;2.50;;
25045;SDS011;13044;49.304;12.840;2022-07-31T13:35:06;3.85;;;2.45;;
25045;SDS011;13044;49.304;12.840;2022-07-31T13:37:52;5.18;;;2.40;;
25045;SDS011;13044;49.304;12.840;2022-07-31T13:40:19;3.55;;;2.30;;
25045;SDS011;13044;49.304;12.840;2022-07-31T13:43:06;2.78;;;2.40;;
25045;SDS011;13044;49.304;12.840;2022-07-31T13:45:33;4.40;;;2.65;;
25045;SDS011;13044;49.304;12.840;2022-07-31T13:48:00;2.67;;;2.47;;
25045;SDS011;13044;49.304;12.840;2022-07-31T13:50:34;3.83;;;2.30;;
25045;SDS011;13044;49.304;12.840;2022-07-31T13:53:02;3.72;;;2.20;;
25045;SDS011;13044;49.304;12.840;2022-07-31T13:55:29;5.47;;;2.35;;
25045;SDS011;13044;49.304;12.840;2022-07-31T13:57:57;4.10;;;2.08;;
25045;SDS011;13044;49.304;12.840;2022-07-31T14:00:26;3.30;;;2.28;;
25045;SDS011;13044;49.304;12.840;2022-07-31T14:02:54;3.10;;;1.80;;
25045;SDS011;13044;49.304;12.840;2022-07-31T14:05:22;5.03;;;2.33;;
25045;SDS011;13044;49.304;12.840;2022-07-31T14:07:53;4.95;;;2.05;;
25045;SDS011;13044;49.304;12.840;2022-07-31T14:10:21;3.30;;;2.10;;
25045;SDS011;13044;49.304;12.840;2022-07-31T14:12:48;2.53;;;1.88;;
25045;SDS011;13044;49.304;12.840;2022-07-31T14:15:17;3.33;;;1.80;;
25045;SDS011;13044;49.304;12.840;2022-07-31T14:17:44;4.32;;;2.03;;
25045;SDS011;13044;49.304;12.840;2022-07-31T14:20:12;2.33;;;1.80;;
25045;SDS011;13044;49.304;12.840;2022-07-31T14:22:39;2.75;;;2.03;;
25045;SDS011;13044;49.304;12.840;2022-07-31T14:25:10;2.58;;;1.67;;
25045;SDS011;13044;49.304;12.840;2022-07-31T14:27:37;2.00;;;1.80;;
25045;SDS011;13044;49.304;12.840;2022-07-31T14:30:05;3.13;;;1.90;;
25045;SDS011;13044;49.304;12.840;2022-07-31T14:32:33;3.80;;;1.90;;
25045;SDS011;13044;49.304;12.840;2022-07-31T14:35:00;2.08;;;1.83;;
25045;SDS011;13044;49.304;12.840;2022-07-31T14:40:00;1.83;;;1.67;;
25045;SDS011;13044;49.304;12.840;2022-07-31T14:42:27;2.65;;;2.25;;
25045;SDS011;13044;49.304;12.840;2022-07-31T14:44:53;2.08;;;1.90;;
25045;SDS011;13044;49.304;12.840;2022-07-31T14:47:20;4.20;;;2.00;;
25045;SDS011;13044;49.304;12.840;2022-07-31T14:49:48;2.75;;;2.25;;
25045;SDS011;13044;49.304;12.840;2022-07-31T14:52:34;1.98;;;1.77;;
25045;SDS011;13044;49.304;12.840;2022-07-31T14:55:01;1.98;;;1.88;;
25045;SDS011;13044;49.304;12.840;2022-07-31T14:57:28;2.50;;;2.10;;
25045;SDS011;13044;49.304;12.840;2022-07-31T14:59:56;2.92;;;2.25;;
25045;SDS011;13044;49.304;12.840;2022-07-31T15:02:24;2.20;;;1.83;;
25045;SDS011;13044;49.304;12.840;2022-07-31T15:04:51;4.28;;;1.77;;
25045;SDS011;13044;49.304;12.840;2022-07-31T15:07:19;1.92;;;1.83;;
25045;SDS011;13044;49.304;12.840;2022-07-31T15:10:07;2.60;;;2.00;;